Terminal Aerodrome Forecast
Issued by NWS

Home | Current Version | Previous Version | Text Only | Print | Product List | Glossary On
Versions: 1 2 3 4 5 6 7 8 9 10 11 12 13 14 15
000
FTPQ31 PGUM 260533
TAFKWA
TAF
PKWA 260533Z 2606/2706 08016G26KT P6SM VCTS SCT012CB BKN030
      TEMPO 2606/2610 2SM +SHRA FEW006 OVC012
     FM261500 10015KT P6SM VCSH SCT012 BKN035=

USA.gov is the U.S. government's official web portal to all federal, state and local government web resources and services.